sensor_id;sensor_type;location;lat;lon;timestamp;P1;durP1;ratioP1;P2;durP2;ratioP2
59147;SDS011;44930;52.878;6.168;2023-10-09T00:01:49;16.13;;;5.68;;
59147;SDS011;44930;52.878;6.168;2023-10-09T00:04:16;13.15;;;5.75;;
59147;SDS011;44930;52.878;6.168;2023-10-09T00:06:42;12.48;;;6.13;;
59147;SDS011;44930;52.878;6.168;2023-10-09T00:09:07;11.20;;;5.68;;
59147;SDS011;44930;52.878;6.168;2023-10-09T00:11:42;14.93;;;6.90;;
59147;SDS011;44930;52.878;6.168;2023-10-09T00:14:10;12.13;;;5.80;;
59147;SDS011;44930;52.878;6.168;2023-10-09T00:16:36;13.23;;;6.88;;
59147;SDS011;44930;52.878;6.168;2023-10-09T00:19:08;12.25;;;7.53;;
59147;SDS011;44930;52.878;6.168;2023-10-09T00:21:45;12.98;;;7.93;;
59147;SDS011;44930;52.878;6.168;2023-10-09T00:24:11;15.82;;;8.15;;
59147;SDS011;44930;52.878;6.168;2023-10-09T00:26:50;15.80;;;9.15;;
59147;SDS011;44930;52.878;6.168;2023-10-09T00:29:16;24.27;;;9.30;;
59147;SDS011;44930;52.878;6.168;2023-10-09T00:31:57;28.38;;;10.45;;
59147;SDS011;44930;52.878;6.168;2023-10-09T00:34:29;19.95;;;10.00;;
59147;SDS011;44930;52.878;6.168;2023-10-09T00:36:55;20.00;;;10.60;;
59147;SDS011;44930;52.878;6.168;2023-10-09T00:39:29;26.40;;;11.77;;
59147;SDS011;44930;52.878;6.168;2023-10-09T00:42:01;22.92;;;11.55;;
59147;SDS011;44930;52.878;6.168;2023-10-09T00:44:28;16.90;;;11.93;;
59147;SDS011;44930;52.878;6.168;2023-10-09T00:47:03;23.40;;;13.50;;
59147;SDS011;44930;52.878;6.168;2023-10-09T00:49:36;25.38;;;12.60;;
59147;SDS011;44930;52.878;6.168;2023-10-09T00:52:07;25.02;;;13.55;;
59147;SDS011;44930;52.878;6.168;2023-10-09T00:54:42;26.77;;;14.15;;
59147;SDS011;44930;52.878;6.168;2023-10-09T00:57:09;25.88;;;14.52;;
59147;SDS011;44930;52.878;6.168;2023-10-09T00:59:38;30.55;;;15.27;;
59147;SDS011;44930;52.878;6.168;2023-10-09T01:02:07;26.90;;;14.55;;
59147;SDS011;44930;52.878;6.168;2023-10-09T01:04:34;28.42;;;14.45;;
59147;SDS011;44930;52.878;6.168;2023-10-09T01:07:08;25.08;;;14.93;;
59147;SDS011;44930;52.878;6.168;2023-10-09T01:09:35;29.70;;;15.70;;
59147;SDS011;44930;52.878;6.168;2023-10-09T01:12:03;30.95;;;16.63;;
59147;SDS011;44930;52.878;6.168;2023-10-09T01:14:30;28.33;;;16.35;;
59147;SDS011;44930;52.878;6.168;2023-10-09T01:17:00;26.88;;;15.73;;
59147;SDS011;44930;52.878;6.168;2023-10-09T01:19:27;34.00;;;18.10;;
59147;SDS011;44930;52.878;6.168;2023-10-09T01:21:53;33.55;;;18.52;;
59147;SDS011;44930;52.878;6.168;2023-10-09T01:24:19;29.92;;;18.70;;
59147;SDS011;44930;52.878;6.168;2023-10-09T01:26:46;31.75;;;18.75;;
59147;SDS011;44930;52.878;6.168;2023-10-09T01:31:48;34.80;;;20.42;;
59147;SDS011;44930;52.878;6.168;2023-10-09T01:34:23;41.63;;;23.30;;
59147;SDS011;44930;52.878;6.168;2023-10-09T01:36:50;47.67;;;23.13;;
59147;SDS011;44930;52.878;6.168;2023-10-09T01:39:19;42.88;;;22.75;;
59147;SDS011;44930;52.878;6.168;2023-10-09T01:42:05;43.95;;;24.40;;
59147;SDS011;44930;52.878;6.168;2023-10-09T01:44:34;44.97;;;24.30;;
59147;SDS011;44930;52.878;6.168;2023-10-09T01:47:03;55.03;;;26.67;;
59147;SDS011;44930;52.878;6.168;2023-10-09T01:49:35;46.72;;;24.05;;
59147;SDS011;44930;52.878;6.168;2023-10-09T01:52:06;51.00;;;25.75;;
59147;SDS011;44930;52.878;6.168;2023-10-09T01:54:44;51.20;;;27.30;;
59147;SDS011;44930;52.878;6.168;2023-10-09T01:57:17;45.03;;;25.42;;
59147;SDS011;44930;52.878;6.168;2023-10-09T01:59:55;48.00;;;25.85;;
59147;SDS011;44930;52.878;6.168;2023-10-09T02:02:22;50.17;;;27.90;;
59147;SDS011;44930;52.878;6.168;2023-10-09T02:04:55;50.55;;;25.80;;
59147;SDS011;44930;52.878;6.168;2023-10-09T02:07:36;50.80;;;27.38;;
59147;SDS011;44930;52.878;6.168;2023-10-09T02:10:08;44.95;;;26.77;;
59147;SDS011;44930;52.878;6.168;2023-10-09T02:12:53;52.47;;;28.60;;
59147;SDS011;44930;52.878;6.168;2023-10-09T02:15:26;54.35;;;27.75;;
59147;SDS011;44930;52.878;6.168;2023-10-09T02:23:31;55.28;;;29.83;;
59147;SDS011;44930;52.878;6.168;2023-10-09T02:26:11;50.25;;;28.75;;
59147;SDS011;44930;52.878;6.168;2023-10-09T02:28:51;58.22;;;30.67;;
59147;SDS011;44930;52.878;6.168;2023-10-09T02:31:24;60.78;;;31.77;;
59147;SDS011;44930;52.878;6.168;2023-10-09T02:33:53;56.85;;;30.15;;
59147;SDS011;44930;52.878;6.168;2023-10-09T02:36:20;50.63;;;28.90;;
59147;SDS011;44930;52.878;6.168;2023-10-09T02:38:46;56.80;;;29.73;;
59147;SDS011;44930;52.878;6.168;2023-10-09T02:41:14;48.78;;;29.70;;
59147;SDS011;44930;52.878;6.168;2023-10-09T02:43:40;51.15;;;30.13;;
59147;SDS011;44930;52.878;6.168;2023-10-09T02:46:15;61.10;;;31.77;;
59147;SDS011;44930;52.878;6.168;2023-10-09T02:48:45;70.60;;;33.75;;
59147;SDS011;44930;52.878;6.168;2023-10-09T02:51:21;66.03;;;33.25;;
59147;SDS011;44930;52.878;6.168;2023-10-09T02:56:23;67.25;;;32.97;;
59147;SDS011;44930;52.878;6.168;2023-10-09T02:59:12;67.28;;;32.92;;
59147;SDS011;44930;52.878;6.168;2023-10-09T03:01:39;57.15;;;32.30;;
59147;SDS011;44930;52.878;6.168;2023-10-09T03:04:06;66.22;;;34.90;;
59147;SDS011;44930;52.878;6.168;2023-10-09T03:06:35;62.42;;;33.30;;
59147;SDS011;44930;52.878;6.168;2023-10-09T03:09:14;73.50;;;35.88;;
59147;SDS011;44930;52.878;6.168;2023-10-09T03:11:48;74.75;;;35.45;;
59147;SDS011;44930;52.878;6.168;2023-10-09T03:14:18;60.85;;;33.28;;
59147;SDS011;44930;52.878;6.168;2023-10-09T03:16:45;69.20;;;36.10;;
59147;SDS011;44930;52.878;6.168;2023-10-09T03:19:13;65.45;;;34.80;;
59147;SDS011;44930;52.878;6.168;2023-10-09T03:21:39;65.82;;;36.47;;
59147;SDS011;44930;52.878;6.168;2023-10-09T03:24:04;67.80;;;36.92;;
59147;SDS011;44930;52.878;6.168;2023-10-09T03:26:31;78.05;;;38.00;;
59147;SDS011;44930;52.878;6.168;2023-10-09T03:28:57;72.47;;;36.53;;
59147;SDS011;44930;52.878;6.168;2023-10-09T03:31:26;67.38;;;36.78;;
59147;SDS011;44930;52.878;6.168;2023-10-09T03:33:52;68.15;;;34.63;;
59147;SDS011;44930;52.878;6.168;2023-10-09T03:36:18;72.22;;;36.08;;
59147;SDS011;44930;52.878;6.168;2023-10-09T03:38:43;63.28;;;33.25;;
59147;SDS011;44930;52.878;6.168;2023-10-09T03:41:09;66.90;;;34.72;;
59147;SDS011;44930;52.878;6.168;2023-10-09T03:43:37;65.30;;;33.78;;
59147;SDS011;44930;52.878;6.168;2023-10-09T03:46:09;68.57;;;34.65;;
59147;SDS011;44930;52.878;6.168;2023-10-09T03:48:39;67.82;;;34.13;;
59147;SDS011;44930;52.878;6.168;2023-10-09T03:51:08;73.57;;;36.05;;
59147;SDS011;44930;52.878;6.168;2023-10-09T03:53:34;76.15;;;34.13;;
59147;SDS011;44930;52.878;6.168;2023-10-09T03:56:06;68.28;;;34.63;;
59147;SDS011;44930;52.878;6.168;2023-10-09T03:58:39;68.00;;;33.03;;
59147;SDS011;44930;52.878;6.168;2023-10-09T04:01:11;62.15;;;33.30;;
59147;SDS011;44930;52.878;6.168;2023-10-09T04:03:54;64.05;;;32.92;;
59147;SDS011;44930;52.878;6.168;2023-10-09T04:06:23;58.05;;;32.03;;
59147;SDS011;44930;52.878;6.168;2023-10-09T04:08:55;69.95;;;35.75;;
59147;SDS011;44930;52.878;6.168;2023-10-09T04:11:50;70.63;;;33.88;;
59147;SDS011;44930;52.878;6.168;2023-10-09T04:14:35;56.92;;;32.55;;
59147;SDS011;44930;52.878;6.168;2023-10-09T04:17:20;63.13;;;33.20;;
59147;SDS011;44930;52.878;6.168;2023-10-09T04:19:55;56.33;;;33.42;;
59147;SDS011;44930;52.878;6.168;2023-10-09T04:22:39;59.33;;;31.13;;
59147;SDS011;44930;52.878;6.168;2023-10-09T04:25:15;60.88;;;30.98;;
59147;SDS011;44930;52.878;6.168;2023-10-09T04:30:37;50.15;;;28.83;;
59147;SDS011;44930;52.878;6.168;2023-10-09T04:33:14;59.80;;;31.55;;
59147;SDS011;44930;52.878;6.168;2023-10-09T04:38:48;46.42;;;27.15;;
59147;SDS011;44930;52.878;6.168;2023-10-09T04:41:39;54.38;;;30.38;;
59147;SDS011;44930;52.878;6.168;2023-10-09T04:44:08;57.47;;;29.02;;
59147;SDS011;44930;52.878;6.168;2023-10-09T04:47:00;52.28;;;28.33;;
59147;SDS011;44930;52.878;6.168;2023-10-09T04:49:38;50.70;;;27.30;;
59147;SDS011;44930;52.878;6.168;2023-10-09T04:52:13;53.00;;;27.63;;
59147;SDS011;44930;52.878;6.168;2023-10-09T04:55:05;50.97;;;26.95;;
59147;SDS011;44930;52.878;6.168;2023-10-09T04:57:35;49.78;;;27.27;;
59147;SDS011;44930;52.878;6.168;2023-10-09T05:02:52;43.47;;;24.55;;
59147;SDS011;44930;52.878;6.168;2023-10-09T05:05:22;49.08;;;25.23;;
59147;SDS011;44930;52.878;6.168;2023-10-09T05:08:13;38.47;;;23.13;;
59147;SDS011;44930;52.878;6.168;2023-10-09T05:13:25;44.33;;;22.98;;
59147;SDS011;44930;52.878;6.168;2023-10-09T05:16:24;38.97;;;21.75;;
59147;SDS011;44930;52.878;6.168;2023-10-09T05:18:58;35.72;;;21.60;;
59147;SDS011;44930;52.878;6.168;2023-10-09T05:21:34;40.22;;;19.02;;
59147;SDS011;44930;52.878;6.168;2023-10-09T05:24:03;33.80;;;19.25;;
59147;SDS011;44930;52.878;6.168;2023-10-09T05:26:38;31.58;;;17.85;;
59147;SDS011;44930;52.878;6.168;2023-10-09T05:29:14;33.30;;;17.63;;
59147;SDS011;44930;52.878;6.168;2023-10-09T05:31:58;34.17;;;17.40;;
59147;SDS011;44930;52.878;6.168;2023-10-09T05:34:30;26.45;;;15.07;;
59147;SDS011;44930;52.878;6.168;2023-10-09T05:37:03;29.67;;;16.05;;
59147;SDS011;44930;52.878;6.168;2023-10-09T05:39:47;28.98;;;14.05;;
59147;SDS011;44930;52.878;6.168;2023-10-09T05:42:25;27.33;;;14.43;;
59147;SDS011;44930;52.878;6.168;2023-10-09T05:45:06;29.35;;;14.10;;
59147;SDS011;44930;52.878;6.168;2023-10-09T05:47:51;24.30;;;13.35;;
59147;SDS011;44930;52.878;6.168;2023-10-09T05:50:36;23.00;;;11.13;;
59147;SDS011;44930;52.878;6.168;2023-10-09T05:56:13;20.75;;;11.85;;
59147;SDS011;44930;52.878;6.168;2023-10-09T05:58:57;18.70;;;11.63;;
59147;SDS011;44930;52.878;6.168;2023-10-09T06:01:41;20.63;;;11.70;;
59147;SDS011;44930;52.878;6.168;2023-10-09T06:04:15;23.13;;;12.32;;
59147;SDS011;44930;52.878;6.168;2023-10-09T06:06:42;23.83;;;10.82;;
59147;SDS011;44930;52.878;6.168;2023-10-09T06:09:14;24.45;;;11.02;;
59147;SDS011;44930;52.878;6.168;2023-10-09T06:11:40;18.63;;;10.13;;
59147;SDS011;44930;52.878;6.168;2023-10-09T06:14:15;21.02;;;10.77;;
59147;SDS011;44930;52.878;6.168;2023-10-09T06:16:50;18.38;;;10.38;;
59147;SDS011;44930;52.878;6.168;2023-10-09T06:19:22;34.75;;;10.45;;
59147;SDS011;44930;52.878;6.168;2023-10-09T06:21:57;25.42;;;10.40;;
59147;SDS011;44930;52.878;6.168;2023-10-09T06:24:42;18.88;;;10.13;;
59147;SDS011;44930;52.878;6.168;2023-10-09T06:27:19;24.42;;;10.50;;
59147;SDS011;44930;52.878;6.168;2023-10-09T06:32:41;27.48;;;10.93;;
59147;SDS011;44930;52.878;6.168;2023-10-09T06:35:22;20.67;;;9.73;;
59147;SDS011;44930;52.878;6.168;2023-10-09T06:40:27;23.98;;;10.73;;
59147;SDS011;44930;52.878;6.168;2023-10-09T06:43:02;23.38;;;10.18;;
59147;SDS011;44930;52.878;6.168;2023-10-09T06:45:37;27.08;;;9.93;;
59147;SDS011;44930;52.878;6.168;2023-10-09T06:48:09;21.52;;;10.65;;
59147;SDS011;44930;52.878;6.168;2023-10-09T06:50:54;22.27;;;10.68;;
59147;SDS011;44930;52.878;6.168;2023-10-09T06:53:32;22.05;;;10.77;;
59147;SDS011;44930;52.878;6.168;2023-10-09T06:56:17;18.58;;;9.77;;
59147;SDS011;44930;52.878;6.168;2023-10-09T06:58:55;25.13;;;11.18;;
59147;SDS011;44930;52.878;6.168;2023-10-09T07:01:22;20.80;;;10.13;;
59147;SDS011;44930;52.878;6.168;2023-10-09T07:04:08;24.02;;;9.15;;
59147;SDS011;44930;52.878;6.168;2023-10-09T07:07:05;21.83;;;9.65;;
59147;SDS011;44930;52.878;6.168;2023-10-09T07:09:49;18.98;;;10.32;;
59147;SDS011;44930;52.878;6.168;2023-10-09T07:12:34;23.10;;;8.82;;
59147;SDS011;44930;52.878;6.168;2023-10-09T07:15:07;20.42;;;9.75;;
59147;SDS011;44930;52.878;6.168;2023-10-09T07:17:33;21.63;;;10.68;;
59147;SDS011;44930;52.878;6.168;2023-10-09T07:19:59;20.50;;;9.98;;
59147;SDS011;44930;52.878;6.168;2023-10-09T07:22:51;25.77;;;10.13;;
59147;SDS011;44930;52.878;6.168;2023-10-09T07:25:21;23.00;;;9.82;;
59147;SDS011;44930;52.878;6.168;2023-10-09T07:28:13;24.35;;;9.82;;
59147;SDS011;44930;52.878;6.168;2023-10-09T07:31:01;26.67;;;10.05;;
59147;SDS011;44930;52.878;6.168;2023-10-09T07:33:28;20.52;;;11.45;;
59147;SDS011;44930;52.878;6.168;2023-10-09T07:36:16;23.15;;;9.68;;
59147;SDS011;44930;52.878;6.168;2023-10-09T07:38:54;25.05;;;10.57;;
59147;SDS011;44930;52.878;6.168;2023-10-09T07:41:20;21.58;;;10.50;;
59147;SDS011;44930;52.878;6.168;2023-10-09T07:43:46;23.90;;;9.95;;
59147;SDS011;44930;52.878;6.168;2023-10-09T07:46:13;28.27;;;11.93;;
59147;SDS011;44930;52.878;6.168;2023-10-09T07:49:05;19.90;;;9.20;;
59147;SDS011;44930;52.878;6.168;2023-10-09T07:51:37;22.35;;;9.52;;
59147;SDS011;44930;52.878;6.168;2023-10-09T07:54:03;18.50;;;10.13;;
59147;SDS011;44930;52.878;6.168;2023-10-09T07:56:39;19.23;;;9.30;;
59147;SDS011;44930;52.878;6.168;2023-10-09T07:59:14;25.63;;;11.15;;
59147;SDS011;44930;52.878;6.168;2023-10-09T08:01:49;21.85;;;11.48;;
59147;SDS011;44930;52.878;6.168;2023-10-09T08:04:27;16.92;;;9.38;;
59147;SDS011;44930;52.878;6.168;2023-10-09T08:07:09;25.02;;;10.52;;
59147;SDS011;44930;52.878;6.168;2023-10-09T08:09:47;21.63;;;9.18;;
59147;SDS011;44930;52.878;6.168;2023-10-09T08:12:13;19.02;;;9.70;;
59147;SDS011;44930;52.878;6.168;2023-10-09T08:15:04;30.30;;;10.55;;
59147;SDS011;44930;52.878;6.168;2023-10-09T08:17:50;20.75;;;8.65;;
59147;SDS011;44930;52.878;6.168;2023-10-09T08:20:25;22.77;;;11.15;;
59147;SDS011;44930;52.878;6.168;2023-10-09T08:22:52;22.30;;;9.43;;
59147;SDS011;44930;52.878;6.168;2023-10-09T08:25:21;27.63;;;9.45;;
59147;SDS011;44930;52.878;6.168;2023-10-09T08:27:57;24.90;;;9.15;;
59147;SDS011;44930;52.878;6.168;2023-10-09T08:30:44;26.83;;;9.20;;
59147;SDS011;44930;52.878;6.168;2023-10-09T08:33:28;25.35;;;9.90;;
59147;SDS011;44930;52.878;6.168;2023-10-09T08:36:06;22.70;;;10.45;;
59147;SDS011;44930;52.878;6.168;2023-10-09T08:38:33;22.23;;;9.95;;
59147;SDS011;44930;52.878;6.168;2023-10-09T08:41:17;26.17;;;10.35;;
59147;SDS011;44930;52.878;6.168;2023-10-09T08:43:47;21.38;;;8.70;;
59147;SDS011;44930;52.878;6.168;2023-10-09T08:46:27;21.20;;;9.23;;
59147;SDS011;44930;52.878;6.168;2023-10-09T08:48:57;19.30;;;8.65;;
59147;SDS011;44930;52.878;6.168;2023-10-09T08:51:25;25.33;;;10.05;;
59147;SDS011;44930;52.878;6.168;2023-10-09T08:53:52;20.27;;;8.82;;
59147;SDS011;44930;52.878;6.168;2023-10-09T08:56:18;26.63;;;8.75;;
59147;SDS011;44930;52.878;6.168;2023-10-09T08:58:49;21.67;;;9.63;;
59147;SDS011;44930;52.878;6.168;2023-10-09T09:01:16;27.10;;;10.13;;
59147;SDS011;44930;52.878;6.168;2023-10-09T09:03:46;23.25;;;9.65;;
59147;SDS011;44930;52.878;6.168;2023-10-09T09:06:13;21.77;;;9.10;;
59147;SDS011;44930;52.878;6.168;2023-10-09T09:08:39;23.40;;;9.63;;
59147;SDS011;44930;52.878;6.168;2023-10-09T09:11:17;21.40;;;9.52;;
59147;SDS011;44930;52.878;6.168;2023-10-09T09:13:48;21.10;;;9.45;;
59147;SDS011;44930;52.878;6.168;2023-10-09T09:16:24;21.92;;;9.60;;
59147;SDS011;44930;52.878;6.168;2023-10-09T09:18:57;19.45;;;8.80;;
59147;SDS011;44930;52.878;6.168;2023-10-09T09:21:34;27.98;;;9.75;;
59147;SDS011;44930;52.878;6.168;2023-10-09T09:24:05;20.63;;;8.85;;
59147;SDS011;44930;52.878;6.168;2023-10-09T09:26:41;26.00;;;9.38;;
59147;SDS011;44930;52.878;6.168;2023-10-09T09:29:12;27.77;;;9.38;;
59147;SDS011;44930;52.878;6.168;2023-10-09T09:31:38;19.40;;;9.32;;
59147;SDS011;44930;52.878;6.168;2023-10-09T09:34:17;23.70;;;9.57;;
59147;SDS011;44930;52.878;6.168;2023-10-09T09:36:49;24.70;;;8.55;;
59147;SDS011;44930;52.878;6.168;2023-10-09T09:39:22;24.08;;;9.35;;
59147;SDS011;44930;52.878;6.168;2023-10-09T09:42:00;24.20;;;9.70;;
59147;SDS011;44930;52.878;6.168;2023-10-09T09:44:33;21.23;;;7.47;;
59147;SDS011;44930;52.878;6.168;2023-10-09T09:47:08;18.25;;;8.25;;
59147;SDS011;44930;52.878;6.168;2023-10-09T09:49:40;23.92;;;8.70;;
59147;SDS011;44930;52.878;6.168;2023-10-09T09:52:06;19.83;;;9.63;;
59147;SDS011;44930;52.878;6.168;2023-10-09T09:54:37;21.38;;;8.90;;
59147;SDS011;44930;52.878;6.168;2023-10-09T09:57:03;23.00;;;8.20;;
59147;SDS011;44930;52.878;6.168;2023-10-09T09:59:34;22.88;;;8.40;;
59147;SDS011;44930;52.878;6.168;2023-10-09T10:02:05;17.55;;;7.75;;
59147;SDS011;44930;52.878;6.168;2023-10-09T10:04:36;23.08;;;9.00;;
59147;SDS011;44930;52.878;6.168;2023-10-09T10:07:05;24.55;;;8.15;;
59147;SDS011;44930;52.878;6.168;2023-10-09T10:09:34;22.23;;;8.90;;
59147;SDS011;44930;52.878;6.168;2023-10-09T10:12:09;31.35;;;9.82;;
59147;SDS011;44930;52.878;6.168;2023-10-09T10:14:52;16.52;;;7.57;;
59147;SDS011;44930;52.878;6.168;2023-10-09T10:20:25;21.40;;;8.20;;
59147;SDS011;44930;52.878;6.168;2023-10-09T10:23:14;15.82;;;7.65;;
59147;SDS011;44930;52.878;6.168;2023-10-09T10:25:50;22.95;;;8.95;;
59147;SDS011;44930;52.878;6.168;2023-10-09T10:28:24;19.40;;;7.97;;
59147;SDS011;44930;52.878;6.168;2023-10-09T10:31:04;24.40;;;8.75;;
59147;SDS011;44930;52.878;6.168;2023-10-09T10:36:18;17.88;;;8.30;;
59147;SDS011;44930;52.878;6.168;2023-10-09T10:38:47;15.85;;;7.32;;
59147;SDS011;44930;52.878;6.168;2023-10-09T10:41:34;16.30;;;7.32;;
59147;SDS011;44930;52.878;6.168;2023-10-09T10:44:31;14.10;;;7.00;;
59147;SDS011;44930;52.878;6.168;2023-10-09T10:47:07;17.02;;;7.40;;
59147;SDS011;44930;52.878;6.168;2023-10-09T10:49:48;23.52;;;8.45;;
59147;SDS011;44930;52.878;6.168;2023-10-09T10:55:34;17.73;;;7.55;;
59147;SDS011;44930;52.878;6.168;2023-10-09T10:57:55;18.70;;;7.78;;
59147;SDS011;44930;52.878;6.168;2023-10-09T11:00:25;21.38;;;8.05;;
59147;SDS011;44930;52.878;6.168;2023-10-09T11:03:19;18.35;;;7.88;;
59147;SDS011;44930;52.878;6.168;2023-10-09T11:05:54;18.80;;;7.18;;
59147;SDS011;44930;52.878;6.168;2023-10-09T11:08:24;14.27;;;7.20;;
59147;SDS011;44930;52.878;6.168;2023-10-09T11:11:10;15.85;;;6.78;;
59147;SDS011;44930;52.878;6.168;2023-10-09T11:13:40;13.55;;;6.80;;
59147;SDS011;44930;52.878;6.168;2023-10-09T11:16:19;15.00;;;6.53;;
59147;SDS011;44930;52.878;6.168;2023-10-09T11:19:06;15.82;;;7.55;;
59147;SDS011;44930;52.878;6.168;2023-10-09T11:21:54;16.17;;;6.10;;
59147;SDS011;44930;52.878;6.168;2023-10-09T11:24:43;16.67;;;6.38;;
59147;SDS011;44930;52.878;6.168;2023-10-09T11:27:23;15.95;;;6.53;;
59147;SDS011;44930;52.878;6.168;2023-10-09T11:29:54;14.75;;;5.82;;
59147;SDS011;44930;52.878;6.168;2023-10-09T11:32:20;14.70;;;5.05;;
59147;SDS011;44930;52.878;6.168;2023-10-09T11:34:51;16.13;;;6.40;;
59147;SDS011;44930;52.878;6.168;2023-10-09T11:37:34;18.10;;;6.05;;
59147;SDS011;44930;52.878;6.168;2023-10-09T11:40:26;20.70;;;5.25;;
59147;SDS011;44930;52.878;6.168;2023-10-09T11:43:20;15.32;;;6.10;;
59147;SDS011;44930;52.878;6.168;2023-10-09T11:46:08;12.05;;;5.80;;
59147;SDS011;44930;52.878;6.168;2023-10-09T11:48:38;12.75;;;5.07;;
59147;SDS011;44930;52.878;6.168;2023-10-09T11:51:33;12.77;;;5.63;;
59147;SDS011;44930;52.878;6.168;2023-10-09T11:54:03;13.63;;;4.03;;
59147;SDS011;44930;52.878;6.168;2023-10-09T11:56:28;7.07;;;3.05;;
59147;SDS011;44930;52.878;6.168;2023-10-09T11:58:54;10.10;;;3.17;;
59147;SDS011;44930;52.878;6.168;2023-10-09T12:01:23;11.88;;;3.42;;
59147;SDS011;44930;52.878;6.168;2023-10-09T12:03:50;9.27;;;4.20;;
59147;SDS011;44930;52.878;6.168;2023-10-09T12:06:17;9.75;;;3.55;;
59147;SDS011;44930;52.878;6.168;2023-10-09T12:08:49;7.43;;;2.92;;
59147;SDS011;44930;52.878;6.168;2023-10-09T12:11:15;7.25;;;3.00;;
59147;SDS011;44930;52.878;6.168;2023-10-09T12:13:48;6.55;;;3.08;;
59147;SDS011;44930;52.878;6.168;2023-10-09T12:16:14;9.05;;;2.92;;
59147;SDS011;44930;52.878;6.168;2023-10-09T12:18:40;10.73;;;3.28;;
59147;SDS011;44930;52.878;6.168;2023-10-09T12:21:07;9.80;;;3.15;;
59147;SDS011;44930;52.878;6.168;2023-10-09T12:23:40;9.25;;;3.40;;
59147;SDS011;44930;52.878;6.168;2023-10-09T12:26:06;8.48;;;2.97;;
59147;SDS011;44930;52.878;6.168;2023-10-09T12:28:39;9.38;;;3.00;;
59147;SDS011;44930;52.878;6.168;2023-10-09T12:31:15;8.50;;;2.97;;
59147;SDS011;44930;52.878;6.168;2023-10-09T12:33:45;9.98;;;3.75;;
59147;SDS011;44930;52.878;6.168;2023-10-09T12:36:14;7.80;;;3.00;;
59147;SDS011;44930;52.878;6.168;2023-10-09T12:38:44;15.30;;;4.00;;
59147;SDS011;44930;52.878;6.168;2023-10-09T12:41:15;9.45;;;3.97;;
59147;SDS011;44930;52.878;6.168;2023-10-09T12:43:50;8.98;;;3.67;;
59147;SDS011;44930;52.878;6.168;2023-10-09T12:46:19;6.78;;;3.63;;
59147;SDS011;44930;52.878;6.168;2023-10-09T12:48:48;10.93;;;3.53;;
59147;SDS011;44930;52.878;6.168;2023-10-09T12:51:14;11.13;;;3.45;;
59147;SDS011;44930;52.878;6.168;2023-10-09T12:53:44;12.13;;;3.63;;
59147;SDS011;44930;52.878;6.168;2023-10-09T12:56:10;10.82;;;3.65;;
59147;SDS011;44930;52.878;6.168;2023-10-09T12:58:37;10.55;;;4.32;;
59147;SDS011;44930;52.878;6.168;2023-10-09T13:01:03;9.60;;;3.25;;
59147;SDS011;44930;52.878;6.168;2023-10-09T13:03:36;10.95;;;3.83;;
59147;SDS011;44930;52.878;6.168;2023-10-09T13:06:04;10.35;;;3.42;;
59147;SDS011;44930;52.878;6.168;2023-10-09T13:08:35;10.85;;;3.22;;
59147;SDS011;44930;52.878;6.168;2023-10-09T13:11:09;10.70;;;3.50;;
59147;SDS011;44930;52.878;6.168;2023-10-09T13:13:42;8.82;;;2.63;;
59147;SDS011;44930;52.878;6.168;2023-10-09T13:16:13;9.57;;;3.13;;
59147;SDS011;44930;52.878;6.168;2023-10-09T13:18:49;7.07;;;2.55;;
59147;SDS011;44930;52.878;6.168;2023-10-09T13:21:27;9.80;;;2.97;;
59147;SDS011;44930;52.878;6.168;2023-10-09T13:23:59;7.25;;;2.22;;
59147;SDS011;44930;52.878;6.168;2023-10-09T13:26:28;5.75;;;2.60;;
59147;SDS011;44930;52.878;6.168;2023-10-09T13:28:55;8.63;;;3.38;;
59147;SDS011;44930;52.878;6.168;2023-10-09T13:31:22;9.88;;;3.00;;
59147;SDS011;44930;52.878;6.168;2023-10-09T13:33:54;11.02;;;2.75;;
59147;SDS011;44930;52.878;6.168;2023-10-09T13:36:21;11.43;;;3.38;;
59147;SDS011;44930;52.878;6.168;2023-10-09T13:39:17;9.02;;;3.00;;
59147;SDS011;44930;52.878;6.168;2023-10-09T13:41:55;11.10;;;3.63;;
59147;SDS011;44930;52.878;6.168;2023-10-09T13:44:28;10.82;;;3.47;;
59147;SDS011;44930;52.878;6.168;2023-10-09T13:46:57;15.15;;;4.57;;
59147;SDS011;44930;52.878;6.168;2023-10-09T13:49:26;14.63;;;4.05;;
59147;SDS011;44930;52.878;6.168;2023-10-09T13:52:01;10.75;;;3.65;;
59147;SDS011;44930;52.878;6.168;2023-10-09T13:54:27;11.45;;;3.40;;
59147;SDS011;44930;52.878;6.168;2023-10-09T13:56:56;9.65;;;3.53;;
59147;SDS011;44930;52.878;6.168;2023-10-09T13:59:22;12.48;;;4.38;;
59147;SDS011;44930;52.878;6.168;2023-10-09T14:01:53;9.93;;;3.42;;
59147;SDS011;44930;52.878;6.168;2023-10-09T14:04:20;14.65;;;4.00;;
59147;SDS011;44930;52.878;6.168;2023-10-09T14:06:46;13.07;;;3.97;;
59147;SDS011;44930;52.878;6.168;2023-10-09T14:11:56;18.33;;;4.72;;
59147;SDS011;44930;52.878;6.168;2023-10-09T14:17:06;18.20;;;4.18;;
59147;SDS011;44930;52.878;6.168;2023-10-09T14:19:37;10.90;;;4.45;;
59147;SDS011;44930;52.878;6.168;2023-10-09T14:22:11;11.52;;;3.65;;
59147;SDS011;44930;52.878;6.168;2023-10-09T14:24:40;13.38;;;4.07;;
59147;SDS011;44930;52.878;6.168;2023-10-09T14:27:16;12.13;;;4.25;;
59147;SDS011;44930;52.878;6.168;2023-10-09T14:29:45;20.95;;;5.47;;
59147;SDS011;44930;52.878;6.168;2023-10-09T14:32:11;19.60;;;4.90;;
59147;SDS011;44930;52.878;6.168;2023-10-09T14:34:44;17.80;;;4.72;;
59147;SDS011;44930;52.878;6.168;2023-10-09T14:39:43;14.40;;;4.50;;
59147;SDS011;44930;52.878;6.168;2023-10-09T14:42:13;19.52;;;5.25;;
59147;SDS011;44930;52.878;6.168;2023-10-09T14:44:40;17.13;;;4.15;;
59147;SDS011;44930;52.878;6.168;2023-10-09T14:47:07;13.88;;;4.80;;
59147;SDS011;44930;52.878;6.168;2023-10-09T14:49:33;17.60;;;4.82;;
59147;SDS011;44930;52.878;6.168;2023-10-09T14:52:00;14.88;;;4.13;;
59147;SDS011;44930;52.878;6.168;2023-10-09T14:54:26;18.50;;;5.15;;
59147;SDS011;44930;52.878;6.168;2023-10-09T14:56:52;12.82;;;4.95;;
59147;SDS011;44930;52.878;6.168;2023-10-09T14:59:19;14.85;;;3.85;;
59147;SDS011;44930;52.878;6.168;2023-10-09T15:01:47;11.25;;;3.47;;
59147;SDS011;44930;52.878;6.168;2023-10-09T15:04:15;9.88;;;3.08;;
59147;SDS011;44930;52.878;6.168;2023-10-09T15:06:41;13.23;;;4.75;;
59147;SDS011;44930;52.878;6.168;2023-10-09T15:09:06;15.85;;;3.88;;
59147;SDS011;44930;52.878;6.168;2023-10-09T15:11:46;12.60;;;3.85;;
59147;SDS011;44930;52.878;6.168;2023-10-09T15:14:13;9.98;;;3.95;;
59147;SDS011;44930;52.878;6.168;2023-10-09T15:16:39;11.43;;;3.28;;
59147;SDS011;44930;52.878;6.168;2023-10-09T15:19:07;9.35;;;3.72;;
59147;SDS011;44930;52.878;6.168;2023-10-09T15:21:35;9.15;;;3.65;;
59147;SDS011;44930;52.878;6.168;2023-10-09T15:24:08;10.70;;;4.30;;
59147;SDS011;44930;52.878;6.168;2023-10-09T15:26:34;9.50;;;3.20;;
59147;SDS011;44930;52.878;6.168;2023-10-09T15:29:00;9.13;;;3.00;;
59147;SDS011;44930;52.878;6.168;2023-10-09T15:31:28;9.85;;;3.42;;
59147;SDS011;44930;52.878;6.168;2023-10-09T15:33:56;12.32;;;3.20;;
59147;SDS011;44930;52.878;6.168;2023-10-09T15:36:22;10.93;;;3.17;;
59147;SDS011;44930;52.878;6.168;2023-10-09T15:38:53;13.10;;;3.63;;
59147;SDS011;44930;52.878;6.168;2023-10-09T15:41:22;10.77;;;3.25;;
59147;SDS011;44930;52.878;6.168;2023-10-09T15:43:48;8.45;;;2.95;;
59147;SDS011;44930;52.878;6.168;2023-10-09T15:46:14;11.82;;;3.83;;
59147;SDS011;44930;52.878;6.168;2023-10-09T15:48:40;10.32;;;3.10;;
59147;SDS011;44930;52.878;6.168;2023-10-09T15:51:10;7.45;;;2.80;;
59147;SDS011;44930;52.878;6.168;2023-10-09T15:53:43;10.57;;;2.97;;